Time;durP1;ratioP1;P1;durP2;ratioP2;P2;SDS_P1;SDS_P2;PMS_P1;PMS_P2;Temp;Humidity;BMP_temperature;BMP_pressure;BME280_temperature;BME280_humidity;BME280_pressure;Samples;Min_cycle;Max_cycle;Signal;HPM_P1;HPM_P2
2022/10/28 00:00:05;;;;;;;5.53;1.73;;;;;;;;;;5010884;28;20410;-79
2022/10/28 00:02:32;;;;;;;4.10;1.50;;;;;;;;;;4991669;28;20045;-79
2022/10/28 00:04:58;;;;;;;4.13;1.30;;;;;;;;;;5019294;28;20056;-78
2022/10/28 00:07:26;;;;;;;5.60;1.42;;;;;;;;;;5025159;28;20050;-79
2022/10/28 00:09:53;;;;;;;6.60;1.20;;;;;;;;;;5012031;28;20050;-78
2022/10/28 00:12:19;;;;;;;5.20;1.40;;;;;;;;;;5012927;28;20054;-78
2022/10/28 00:14:45;;;;;;;6.55;1.42;;;;;;;;;;5012971;28;20069;-79
2022/10/28 00:17:12;;;;;;;3.92;1.30;;;;;;;;;;5013240;28;20054;-79
2022/10/28 00:19:38;;;;;;;8.00;2.08;;;;;;;;;;5012685;28;20061;-79
2022/10/28 00:22:04;;;;;;;6.57;1.60;;;;;;;;;;5011670;28;20050;-77
2022/10/28 00:24:31;;;;;;;5.57;1.30;;;;;;;;;;5010995;28;20050;-80
2022/10/28 00:26:57;;;;;;;7.95;1.77;;;;;;;;;;5015034;28;20137;-80
2022/10/28 00:29:23;;;;;;;4.97;1.63;;;;;;;;;;5013347;28;20053;-79
2022/10/28 00:31:51;;;;;;;8.15;1.58;;;;;;;;;;5012618;28;20206;-79
2022/10/28 00:34:22;;;;;;;5.05;1.63;;;;;;;;;;5011503;28;20517;-79
2022/10/28 00:36:48;;;;;;;7.40;1.42;;;;;;;;;;5012841;28;20064;-79
2022/10/28 00:39:16;;;;;;;9.45;1.80;;;;;;;;;;5010643;28;20506;-79
2022/10/28 00:41:44;;;;;;;8.40;1.60;;;;;;;;;;5015383;28;20405;-79
2022/10/28 00:44:29;;;;;;;7.35;1.52;;;;;;;;;;5011694;28;20057;-79
2022/10/28 00:46:55;;;;;;;8.07;1.25;;;;;;;;;;5012070;28;20137;-79
2022/10/28 00:49:26;;;;;;;8.60;1.55;;;;;;;;;;5011069;28;20141;-79
2022/10/28 00:51:54;;;;;;;9.15;1.60;;;;;;;;;;4994984;28;20498;-79
2022/10/28 00:54:22;;;;;;;7.13;1.67;;;;;;;;;;4992591;28;20052;-79
2022/10/28 00:56:50;;;;;;;4.78;1.60;;;;;;;;;;4995606;28;20045;-79
2022/10/28 00:59:31;;;;;;;6.78;1.70;;;;;;;;;;4994254;28;20046;-79
2022/10/28 01:01:58;;;;;;;7.53;1.60;;;;;;;;;;5012136;28;20283;-79
2022/10/28 01:04:24;;;;;;;7.47;1.40;;;;;;;;;;5008785;28;20133;-78
2022/10/28 01:06:51;;;;;;;4.43;1.33;;;;;;;;;;5012434;28;20042;-79
2022/10/28 01:09:17;;;;;;;6.95;1.38;;;;;;;;;;5010056;28;20053;-79
2022/10/28 01:11:51;;;;;;;4.63;1.50;;;;;;;;;;5011791;28;20414;-79
2022/10/28 01:14:24;;;;;;;6.18;1.55;;;;;;;;;;5009531;28;20050;-79
2022/10/28 01:16:50;;;;;;;12.25;1.63;;;;;;;;;;4994645;28;20455;-79
2022/10/28 01:19:30;;;;;;;7.82;1.38;;;;;;;;;;5010251;28;20056;-79
2022/10/28 01:22:15;;;;;;;7.03;1.70;;;;;;;;;;4993619;28;20084;-79
2022/10/28 01:24:42;;;;;;;12.73;1.67;;;;;;;;;;5009900;28;20112;-79
2022/10/28 01:27:14;;;;;;;6.13;1.50;;;;;;;;;;5014443;28;20046;-77
2022/10/28 01:29:59;;;;;;;7.45;1.90;;;;;;;;;;5014266;28;20061;-79
2022/10/28 01:32:26;;;;;;;5.40;1.60;;;;;;;;;;5014420;28;20054;-79
2022/10/28 01:35:01;;;;;;;7.82;1.42;;;;;;;;;;5015080;28;20046;-79
2022/10/28 01:37:34;;;;;;;2.97;1.40;;;;;;;;;;5016929;28;20060;-78
2022/10/28 01:40:10;;;;;;;4.40;1.45;;;;;;;;;;5017819;28;20046;-79
2022/10/28 01:42:40;;;;;;;5.63;1.42;;;;;;;;;;5014209;28;20057;-78
2022/10/28 01:45:14;;;;;;;8.13;1.40;;;;;;;;;;5013413;28;20042;-77
2022/10/28 01:47:49;;;;;;;6.85;1.55;;;;;;;;;;4995661;28;20557;-77
2022/10/28 01:50:22;;;;;;;6.60;1.48;;;;;;;;;;5026820;28;20053;-79
2022/10/28 01:52:50;;;;;;;8.55;1.65;;;;;;;;;;5020858;28;20368;-79
2022/10/28 01:55:25;;;;;;;9.40;1.55;;;;;;;;;;5019261;28;20133;-79
2022/10/28 01:57:53;;;;;;;4.90;1.30;;;;;;;;;;5002918;28;20054;-80
2022/10/28 02:00:20;;;;;;;7.10;1.40;;;;;;;;;;5019905;28;20110;-79
2022/10/28 02:02:48;;;;;;;6.22;1.60;;;;;;;;;;5018667;28;20129;-80
2022/10/28 02:05:33;;;;;;;3.30;1.30;;;;;;;;;;5002419;28;20069;-79
2022/10/28 02:08:02;;;;;;;7.30;1.52;;;;;;;;;;5020995;28;20506;-79
2022/10/28 02:10:32;;;;;;;11.18;1.52;;;;;;;;;;5012009;28;20049;-78
2022/10/28 02:13:01;;;;;;;10.93;1.65;;;;;;;;;;5012197;28;20137;-79
2022/10/28 02:15:31;;;;;;;3.28;1.40;;;;;;;;;;5013333;28;20050;-79
2022/10/28 02:18:00;;;;;;;7.57;1.60;;;;;;;;;;5012820;28;20058;-79
2022/10/28 02:20:50;;;;;;;8.40;1.70;;;;;;;;;;5013606;28;20050;-79
2022/10/28 02:23:20;;;;;;;5.93;1.50;;;;;;;;;;5018411;28;20057;-80
2022/10/28 02:26:03;;;;;;;5.68;1.70;;;;;;;;;;5006853;28;20064;-79
2022/10/28 02:28:39;;;;;;;6.72;1.65;;;;;;;;;;5028285;28;20045;-79
2022/10/28 02:31:05;;;;;;;;;;;;;;;;;;5013256;28;20063;-78
2022/10/28 02:33:31;;;;;;;;;;;;;;;;;;5017759;28;19960;-79
2022/10/28 02:35:58;;;;;;;;;;;;;;;;;;5014108;28;20397;-77
2022/10/28 02:38:24;;;;;;;;;;;;;;;;;;5012775;28;19926;-79
2022/10/28 02:40:50;;;;;;;;;;;;;;;;;;5018971;28;19928;-79
2022/10/28 02:43:19;;;;;;;9.77;1.98;;;;;;;;;;5012633;28;19959;-77
2022/10/28 02:45:47;;;;;;;10.35;1.55;;;;;;;;;;5014924;28;20076;-78
2022/10/28 02:48:18;;;;;;;4.85;1.80;;;;;;;;;;5013316;28;20046;-78
2022/10/28 02:50:47;;;;;;;6.22;1.75;;;;;;;;;;4995253;28;20061;-80
2022/10/28 02:53:19;;;;;;;8.25;1.98;;;;;;;;;;5011783;28;20077;-80
2022/10/28 02:55:53;;;;;;;5.82;1.80;;;;;;;;;;5014421;28;20057;-79
2022/10/28 02:58:20;;;;;;;4.85;1.95;;;;;;;;;;5013659;28;20053;-78
2022/10/28 03:00:48;;;;;;;6.57;1.88;;;;;;;;;;4995601;28;20077;-78
2022/10/28 03:03:14;;;;;;;8.05;2.22;;;;;;;;;;5011516;28;20077;-79
2022/10/28 03:05:41;;;;;;;7.03;1.63;;;;;;;;;;5011805;28;20052;-79
2022/10/28 03:08:07;;;;;;;6.65;1.73;;;;;;;;;;5012573;28;20065;-79
2022/10/28 03:10:33;;;;;;;8.20;1.88;;;;;;;;;;5011290;28;20310;-79
2022/10/28 03:13:00;;;;;;;9.73;2.17;;;;;;;;;;5010733;28;20053;-80
2022/10/28 03:15:26;;;;;;;9.75;1.70;;;;;;;;;;5012481;28;20061;-79
2022/10/28 03:17:52;;;;;;;6.53;1.83;;;;;;;;;;5013506;28;20060;-79
2022/10/28 03:20:19;;;;;;;14.82;2.22;;;;;;;;;;5012944;28;20284;-78
2022/10/28 03:22:46;;;;;;;9.98;1.95;;;;;;;;;;5012562;28;20406;-78
2022/10/28 03:25:12;;;;;;;4.97;1.77;;;;;;;;;;5010965;28;20128;-78
2022/10/28 03:27:39;;;;;;;5.10;2.00;;;;;;;;;;5010644;28;20048;-78
2022/10/28 03:30:06;;;;;;;9.30;2.38;;;;;;;;;;4992887;28;20493;-78
2022/10/28 03:32:32;;;;;;;7.30;2.15;;;;;;;;;;5009870;28;20605;-79
2022/10/28 03:34:58;;;;;;;11.07;2.30;;;;;;;;;;5010323;28;20050;-78
2022/10/28 03:37:25;;;;;;;10.32;2.40;;;;;;;;;;5010697;28;20049;-78
2022/10/28 03:39:51;;;;;;;7.10;2.13;;;;;;;;;;4992693;28;20305;-78
2022/10/28 03:42:18;;;;;;;11.95;2.55;;;;;;;;;;4993540;28;20406;-78
2022/10/28 03:44:44;;;;;;;7.20;2.35;;;;;;;;;;5010934;28;20042;-78
2022/10/28 03:47:10;;;;;;;7.05;2.40;;;;;;;;;;5011218;28;20445;-78
2022/10/28 03:49:37;;;;;;;7.60;2.22;;;;;;;;;;5008432;28;20533;-79
2022/10/28 03:52:03;;;;;;;5.40;1.95;;;;;;;;;;5009446;28;20054;-78
2022/10/28 03:54:29;;;;;;;7.88;2.38;;;;;;;;;;5009363;28;20054;-78
2022/10/28 03:56:56;;;;;;;5.22;1.92;;;;;;;;;;5012647;28;20076;-78
2022/10/28 03:59:22;;;;;;;6.82;2.47;;;;;;;;;;5013021;28;20060;-79
2022/10/28 04:01:48;;;;;;;4.82;2.00;;;;;;;;;;5017172;28;20042;-78
2022/10/28 04:04:15;;;;;;;8.93;2.50;;;;;;;;;;5011090;28;20570;-79
2022/10/28 04:06:41;;;;;;;7.18;2.22;;;;;;;;;;5024250;28;20053;-78
2022/10/28 04:09:08;;;;;;;6.95;2.33;;;;;;;;;;5014874;28;20097;-79
2022/10/28 04:11:34;;;;;;;6.80;2.38;;;;;;;;;;5014953;28;20164;-79
2022/10/28 04:14:00;;;;;;;7.55;2.50;;;;;;;;;;5013781;28;20042;-79
2022/10/28 04:16:27;;;;;;;11.25;2.65;;;;;;;;;;5015499;28;20050;-78
2022/10/28 04:18:53;;;;;;;8.82;2.63;;;;;;;;;;5012919;28;20093;-78
2022/10/28 04:21:19;;;;;;;8.15;2.55;;;;;;;;;;5013818;28;20046;-79
2022/10/28 04:23:46;;;;;;;11.45;2.60;;;;;;;;;;4994065;28;20060;-78
2022/10/28 04:26:13;;;;;;;12.55;2.90;;;;;;;;;;5012599;28;20153;-78
2022/10/28 04:28:39;;;;;;;12.40;2.65;;;;;;;;;;5012977;28;20046;-78
2022/10/28 04:31:06;;;;;;;6.97;2.35;;;;;;;;;;5010695;28;20145;-79
2022/10/28 04:33:32;;;;;;;12.43;2.95;;;;;;;;;;5009665;28;20104;-79
2022/10/28 04:35:58;;;;;;;12.75;3.38;;;;;;;;;;4992658;28;20046;-79
2022/10/28 04:38:25;;;;;;;12.30;3.08;;;;;;;;;;4992196;28;20089;-78
2022/10/28 04:40:51;;;;;;;7.65;2.70;;;;;;;;;;5012218;28;20060;-78
2022/10/28 04:43:18;;;;;;;10.27;2.75;;;;;;;;;;5008136;28;20045;-78
2022/10/28 04:45:45;;;;;;;9.80;2.80;;;;;;;;;;5009340;28;20048;-79
2022/10/28 04:48:11;;;;;;;8.45;2.40;;;;;;;;;;5020592;28;20046;-78
2022/10/28 04:50:38;;;;;;;9.10;2.75;;;;;;;;;;5020862;28;20481;-78
2022/10/28 04:53:04;;;;;;;7.68;2.33;;;;;;;;;;5010301;28;20056;-79
2022/10/28 04:55:30;;;;;;;8.45;2.78;;;;;;;;;;5008841;28;20046;-79
2022/10/28 04:57:58;;;;;;;5.70;2.70;;;;;;;;;;5009612;28;20065;-78
2022/10/28 05:00:25;;;;;;;9.68;2.28;;;;;;;;;;5009258;28;20045;-79
2022/10/28 05:02:52;;;;;;;8.77;2.53;;;;;;;;;;5011465;28;20046;-79
2022/10/28 05:05:19;;;;;;;8.90;2.58;;;;;;;;;;5012975;28;20077;-79
2022/10/28 05:07:45;;;;;;;8.77;2.70;;;;;;;;;;4996736;28;20477;-78
2022/10/28 05:10:14;;;;;;;6.32;2.47;;;;;;;;;;5012600;28;20046;-79
2022/10/28 05:12:41;;;;;;;6.43;2.65;;;;;;;;;;4995999;28;20136;-78
2022/10/28 05:15:08;;;;;;;7.47;2.65;;;;;;;;;;5013214;28;20077;-78
2022/10/28 05:17:34;;;;;;;7.90;2.55;;;;;;;;;;5014218;28;20072;-78
2022/10/28 05:20:01;;;;;;;11.05;2.45;;;;;;;;;;5012853;28;20045;-78
2022/10/28 05:22:27;;;;;;;9.88;2.67;;;;;;;;;;5014849;28;20160;-77
2022/10/28 05:24:53;;;;;;;6.80;2.60;;;;;;;;;;5013539;28;20048;-79
2022/10/28 05:27:20;;;;;;;9.75;3.08;;;;;;;;;;5013684;28;20052;-78
2022/10/28 05:29:46;;;;;;;7.90;2.70;;;;;;;;;;5012935;28;20497;-78
2022/10/28 05:32:15;;;;;;;12.32;3.30;;;;;;;;;;5012990;28;20068;-78
2022/10/28 05:34:42;;;;;;;6.53;2.63;;;;;;;;;;5012067;28;20053;-79
2022/10/28 05:37:08;;;;;;;8.48;2.90;;;;;;;;;;5012758;28;20064;-78
2022/10/28 05:39:34;;;;;;;8.68;2.63;;;;;;;;;;5011853;28;20281;-79
2022/10/28 05:42:01;;;;;;;8.75;2.60;;;;;;;;;;5012786;28;20053;-76
2022/10/28 05:44:27;;;;;;;12.63;3.10;;;;;;;;;;5011094;28;20046;-78
2022/10/28 05:46:54;;;;;;;9.15;2.83;;;;;;;;;;5013226;28;20068;-79
2022/10/28 05:49:20;;;;;;;7.30;2.63;;;;;;;;;;5012154;28;20046;-78
2022/10/28 05:51:47;;;;;;;6.88;2.83;;;;;;;;;;5013576;28;20056;-77
2022/10/28 05:54:13;;;;;;;13.43;2.90;;;;;;;;;;5019139;28;20061;-77
2022/10/28 05:56:40;;;;;;;6.32;2.60;;;;;;;;;;5019836;28;20042;-77
2022/10/28 05:59:06;;;;;;;8.57;3.15;;;;;;;;;;5016267;28;20053;-78
2022/10/28 06:01:32;;;;;;;9.65;3.17;;;;;;;;;;5013827;28;20042;-78
2022/10/28 06:03:59;;;;;;;13.85;3.40;;;;;;;;;;5010687;28;20133;-79
2022/10/28 06:06:26;;;;;;;8.25;3.08;;;;;;;;;;5012104;28;20470;-79
2022/10/28 06:08:53;;;;;;;10.23;3.33;;;;;;;;;;4994431;28;20042;-79
2022/10/28 06:11:19;;;;;;;11.07;3.50;;;;;;;;;;5012428;28;20445;-79
2022/10/28 06:13:46;;;;;;;10.48;2.95;;;;;;;;;;5009990;28;20456;-79
2022/10/28 06:16:12;;;;;;;9.00;3.20;;;;;;;;;;4995642;28;20049;-79
2022/10/28 06:18:38;;;;;;;9.27;3.42;;;;;;;;;;5012267;28;20424;-78
2022/10/28 06:21:05;;;;;;;14.30;3.70;;;;;;;;;;5012942;28;20081;-79
2022/10/28 06:23:31;;;;;;;9.35;3.55;;;;;;;;;;5010791;28;20510;-79
2022/10/28 06:25:59;;;;;;;11.95;3.83;;;;;;;;;;5011724;28;20054;-79
2022/10/28 06:28:25;;;;;;;12.10;4.07;;;;;;;;;;5012227;28;20103;-78
2022/10/28 06:30:52;;;;;;;12.52;4.82;;;;;;;;;;5013163;28;20046;-79
2022/10/28 06:33:18;;;;;;;12.98;4.25;;;;;;;;;;4993711;28;20065;-78
2022/10/28 06:35:44;;;;;;;13.40;4.18;;;;;;;;;;5011605;28;20090;-78
2022/10/28 06:38:11;;;;;;;9.35;3.42;;;;;;;;;;5010995;28;20582;-78
2022/10/28 06:40:37;;;;;;;15.65;3.78;;;;;;;;;;5010698;28;20137;-78
2022/10/28 06:43:05;;;;;;;12.02;3.80;;;;;;;;;;5010179;28;20057;-79
2022/10/28 06:45:32;;;;;;;11.30;2.92;;;;;;;;;;5010910;28;20079;-78
2022/10/28 06:48:00;;;;;;;9.93;3.67;;;;;;;;;;5011619;28;20077;-78
2022/10/28 06:50:27;;;;;;;12.75;3.33;;;;;;;;;;5009256;28;20072;-79
2022/10/28 06:52:57;;;;;;;8.52;3.28;;;;;;;;;;5009701;28;20045;-79
2022/10/28 06:55:23;;;;;;;9.35;3.45;;;;;;;;;;4991883;28;20061;-79
2022/10/28 06:57:50;;;;;;;14.82;3.95;;;;;;;;;;5010475;28;20046;-78
2022/10/28 07:00:17;;;;;;;13.57;3.28;;;;;;;;;;5011204;28;20141;-80
2022/10/28 07:02:44;;;;;;;16.38;3.47;;;;;;;;;;5009814;28;20053;-79
2022/10/28 07:05:10;;;;;;;10.75;3.03;;;;;;;;;;5009251;28;20050;-78
2022/10/28 07:07:37;;;;;;;10.48;2.80;;;;;;;;;;5011350;28;20085;-79
2022/10/28 07:10:04;;;;;;;14.80;3.35;;;;;;;;;;5017960;28;20144;-79
2022/10/28 07:12:30;;;;;;;12.70;2.53;;;;;;;;;;5023481;28;20117;-78
2022/10/28 07:14:57;;;;;;;11.32;2.63;;;;;;;;;;5024452;28;20118;-78
2022/10/28 07:17:23;;;;;;;9.10;2.17;;;;;;;;;;5017619;28;20398;-79
2022/10/28 07:19:50;;;;;;;16.52;2.30;;;;;;;;;;5022978;28;20100;-79
2022/10/28 07:22:16;;;;;;;14.68;2.50;;;;;;;;;;5025275;28;20074;-78
2022/10/28 07:24:42;;;;;;;9.60;2.40;;;;;;;;;;5023217;28;20448;-79
2022/10/28 07:27:09;;;;;;;14.23;2.38;;;;;;;;;;5026629;28;20058;-79
2022/10/28 07:29:35;;;;;;;8.90;2.13;;;;;;;;;;5022852;28;20134;-79
2022/10/28 07:32:02;;;;;;;13.02;2.50;;;;;;;;;;5026061;28;20046;-78
2022/10/28 07:34:28;;;;;;;8.07;2.45;;;;;;;;;;5016074;28;20054;-79
2022/10/28 07:36:54;;;;;;;12.93;2.28;;;;;;;;;;5010718;28;20059;-78
2022/10/28 07:39:21;;;;;;;10.68;2.40;;;;;;;;;;5009842;28;20053;-79
2022/10/28 07:41:47;;;;;;;9.60;2.67;;;;;;;;;;5010136;28;20062;-77
2022/10/28 07:44:14;;;;;;;11.40;2.38;;;;;;;;;;5009545;28;20160;-80
2022/10/28 07:46:40;;;;;;;19.00;2.85;;;;;;;;;;5012011;28;20506;-79
2022/10/28 07:49:07;;;;;;;8.15;2.38;;;;;;;;;;5010875;28;20052;-79
2022/10/28 07:51:33;;;;;;;15.45;2.63;;;;;;;;;;4993135;28;20057;-78
2022/10/28 07:53:59;;;;;;;18.83;2.63;;;;;;;;;;5009010;28;20050;-79
2022/10/28 07:56:26;;;;;;;11.45;2.95;;;;;;;;;;5011077;28;20049;-78
2022/10/28 07:58:52;;;;;;;7.50;2.55;;;;;;;;;;5009863;28;20046;-79
2022/10/28 08:01:19;;;;;;;9.95;2.20;;;;;;;;;;5010736;28;20045;-79
2022/10/28 08:03:48;;;;;;;8.68;2.88;;;;;;;;;;5007936;28;20061;-78
2022/10/28 08:06:16;;;;;;;9.43;2.03;;;;;;;;;;5009776;28;20046;-79
2022/10/28 08:08:43;;;;;;;10.48;2.45;;;;;;;;;;5009275;28;20054;-79
2022/10/28 08:11:12;;;;;;;9.07;2.20;;;;;;;;;;5010028;28;20049;-78
2022/10/28 08:13:39;;;;;;;10.52;2.50;;;;;;;;;;5008358;28;20060;-78
2022/10/28 08:16:06;;;;;;;12.60;2.75;;;;;;;;;;5010269;28;20368;-79
2022/10/28 08:18:33;;;;;;;9.35;2.10;;;;;;;;;;4991873;28;20521;-78
2022/10/28 08:21:00;;;;;;;11.82;2.10;;;;;;;;;;5009038;28;20041;-79
2022/10/28 08:23:27;;;;;;;14.85;2.10;;;;;;;;;;5008869;28;20422;-79
2022/10/28 08:25:54;;;;;;;12.57;2.10;;;;;;;;;;5010050;28;20429;-79
2022/10/28 08:28:20;;;;;;;9.95;2.05;;;;;;;;;;5010009;28;20050;-79
2022/10/28 08:30:47;;;;;;;10.57;2.28;;;;;;;;;;5010820;28;20286;-80
2022/10/28 08:33:33;;;;;;;12.55;1.98;;;;;;;;;;5009125;28;20070;-80
2022/10/28 08:35:59;;;;;;;8.73;2.10;;;;;;;;;;5010533;28;20054;-79
2022/10/28 08:38:26;;;;;;;11.38;2.30;;;;;;;;;;5013341;28;20152;-80
2022/10/28 08:40:52;;;;;;;6.10;1.83;;;;;;;;;;5015702;28;20050;-80
2022/10/28 08:43:31;;;;;;;11.70;2.17;;;;;;;;;;5020522;28;20088;-79
2022/10/28 08:46:23;;;;;;;11.15;2.65;;;;;;;;;;5020204;28;20537;-78
2022/10/28 08:48:49;;;;;;;12.77;2.17;;;;;;;;;;5014750;28;20049;-79
2022/10/28 08:51:19;;;;;;;9.35;1.85;;;;;;;;;;5014026;28;20056;-79
2022/10/28 08:54:01;;;;;;;8.70;1.60;;;;;;;;;;4995188;28;20434;-79
2022/10/28 08:56:36;;;;;;;7.50;1.95;;;;;;;;;;5016283;28;20054;-78
2022/10/28 08:59:05;;;;;;;8.90;2.07;;;;;;;;;;5018891;28;20056;-79
2022/10/28 09:01:40;;;;;;;16.88;2.80;;;;;;;;;;5006292;28;20046;-79
2022/10/28 09:04:30;;;;;;;7.45;2.00;;;;;;;;;;5007497;28;20046;-78
2022/10/28 09:06:57;;;;;;;7.13;2.00;;;;;;;;;;5014459;28;20437;-79
2022/10/28 09:09:23;;;;;;;9.25;2.20;;;;;;;;;;5020252;28;20046;-79
2022/10/28 09:11:55;;;;;;;7.15;2.10;;;;;;;;;;5023769;28;20049;-78
2022/10/28 09:14:27;;;;;;;12.88;2.33;;;;;;;;;;5023116;28;20128;-79
2022/10/28 09:17:02;;;;;;;13.25;2.50;;;;;;;;;;5023296;28;20473;-78
2022/10/28 09:19:34;;;;;;;15.88;2.38;;;;;;;;;;5024469;28;20232;-78
2022/10/28 09:22:07;;;;;;;7.53;2.10;;;;;;;;;;5029913;28;20113;-77
2022/10/28 09:24:54;;;;;;;8.93;1.90;;;;;;;;;;5004885;28;20046;-79
2022/10/28 09:27:27;;;;;;;12.43;2.08;;;;;;;;;;5021163;28;20065;-79
2022/10/28 09:29:53;;;;;;;15.02;2.00;;;;;;;;;;5015802;28;20124;-79
2022/10/28 09:32:39;;;;;;;11.70;2.40;;;;;;;;;;5009719;28;20136;-78
2022/10/28 09:35:09;;;;;;;8.70;2.28;;;;;;;;;;5025758;28;20103;-78
2022/10/28 09:37:37;;;;;;;13.77;2.13;;;;;;;;;;5014539;28;20057;-79
2022/10/28 09:40:11;;;;;;;10.85;2.42;;;;;;;;;;5011737;28;20046;-78
2022/10/28 09:42:44;;;;;;;16.13;2.67;;;;;;;;;;5014316;28;20064;-78
2022/10/28 09:45:14;;;;;;;8.50;2.80;;;;;;;;;;5013205;28;20054;-78
2022/10/28 09:47:43;;;;;;;14.13;2.50;;;;;;;;;;5013290;28;20050;-79
2022/10/28 09:50:28;;;;;;;10.38;2.20;;;;;;;;;;5012343;28;20064;-78
2022/10/28 09:53:02;;;;;;;11.25;2.20;;;;;;;;;;5013892;28;20052;-79
2022/10/28 09:55:29;;;;;;;13.60;2.17;;;;;;;;;;5011487;28;20078;-78
2022/10/28 09:57:55;;;;;;;11.10;2.25;;;;;;;;;;5015636;28;20228;-79
2022/10/28 10:00:22;;;;;;;10.52;2.10;;;;;;;;;;5016184;28;20081;-79
2022/10/28 10:02:50;;;;;;;10.75;2.05;;;;;;;;;;5014301;28;20053;-79
2022/10/28 10:05:17;;;;;;;15.48;2.20;;;;;;;;;;5013274;28;20052;-79
2022/10/28 10:07:52;;;;;;;11.55;2.58;;;;;;;;;;5018303;28;20132;-78
2022/10/28 10:10:24;;;;;;;14.90;2.03;;;;;;;;;;4994771;28;20152;-79
2022/10/28 10:12:52;;;;;;;7.43;1.83;;;;;;;;;;4995692;28;20046;-79
2022/10/28 10:15:25;;;;;;;15.40;2.50;;;;;;;;;;5013436;28;20050;-78
2022/10/28 10:17:51;;;;;;;12.30;2.08;;;;;;;;;;5012938;28;20046;-77
2022/10/28 10:20:19;;;;;;;8.98;1.80;;;;;;;;;;5011759;28;20050;-79
2022/10/28 10:22:50;;;;;;;10.23;2.30;;;;;;;;;;5013280;28;20077;-78
2022/10/28 10:25:17;;;;;;;13.30;1.73;;;;;;;;;;4994469;28;20052;-79
2022/10/28 10:27:59;;;;;;;10.90;2.08;;;;;;;;;;5014201;28;20141;-79
2022/10/28 10:30:36;;;;;;;8.75;2.08;;;;;;;;;;5017032;28;20050;-79
2022/10/28 10:33:04;;;;;;;11.13;2.70;;;;;;;;;;4995455;28;20045;-79
2022/10/28 10:35:31;;;;;;;10.05;2.65;;;;;;;;;;5011403;28;20049;-77
2022/10/28 10:37:59;;;;;;;8.82;2.25;;;;;;;;;;5015358;28;20092;-78
2022/10/28 10:40:46;;;;;;;5.60;1.83;;;;;;;;;;5016130;28;20061;-78
2022/10/28 10:43:17;;;;;;;10.52;1.90;;;;;;;;;;5015636;28;20174;-79
2022/10/28 10:46:13;;;;;;;11.40;2.35;;;;;;;;;;5015852;28;20050;-78
2022/10/28 10:48:40;;;;;;;11.70;2.13;;;;;;;;;;5003016;28;20129;-79
2022/10/28 10:51:08;;;;;;;14.70;2.28;;;;;;;;;;4999316;28;20057;-78
2022/10/28 10:53:35;;;;;;;7.97;1.88;;;;;;;;;;5013546;28;20096;-79
2022/10/28 10:56:03;;;;;;;12.07;2.00;;;;;;;;;;5014824;28;20049;-78
2022/10/28 10:58:31;;;;;;;9.60;2.08;;;;;;;;;;5014631;28;20063;-78
2022/10/28 11:00:59;;;;;;;7.15;2.20;;;;;;;;;;5013234;28;20045;-79
2022/10/28 11:03:44;;;;;;;8.25;2.28;;;;;;;;;;5012466;28;20061;-79
2022/10/28 11:06:19;;;;;;;16.33;2.20;;;;;;;;;;5012495;28;20041;-77
2022/10/28 11:08:54;;;;;;;14.73;2.25;;;;;;;;;;5011824;28;20469;-78
2022/10/28 11:11:21;;;;;;;8.95;2.00;;;;;;;;;;5013317;28;20497;-79
2022/10/28 11:13:48;;;;;;;13.18;2.40;;;;;;;;;;5013146;28;20112;-79
2022/10/28 11:16:17;;;;;;;12.90;2.10;;;;;;;;;;5014220;28;20140;-79
2022/10/28 11:18:45;;;;;;;12.82;2.45;;;;;;;;;;5012972;28;20053;-79
2022/10/28 11:21:11;;;;;;;10.95;1.92;;;;;;;;;;5013475;28;20057;-79
2022/10/28 11:23:56;;;;;;;7.57;1.98;;;;;;;;;;5012667;28;20506;-79
2022/10/28 11:26:23;;;;;;;7.15;1.80;;;;;;;;;;5013957;28;20074;-79
2022/10/28 11:28:54;;;;;;;11.25;1.63;;;;;;;;;;5013285;28;20050;-79
2022/10/28 11:31:27;;;;;;;10.15;1.98;;;;;;;;;;5014212;28;20054;-78
2022/10/28 11:34:13;;;;;;;7.60;2.13;;;;;;;;;;5015985;28;20092;-77
2022/10/28 11:36:47;;;;;;;13.07;2.33;;;;;;;;;;5012412;28;20046;-78
2022/10/28 11:39:24;;;;;;;10.73;2.03;;;;;;;;;;5010872;28;20050;-78
2022/10/28 11:41:57;;;;;;;9.60;2.10;;;;;;;;;;5011532;28;20490;-80
2022/10/28 11:44:42;;;;;;;12.48;2.10;;;;;;;;;;5011556;28;20520;-78
2022/10/28 11:47:11;;;;;;;7.60;1.90;;;;;;;;;;5003551;28;20046;-79
2022/10/28 11:49:50;;;;;;;8.45;2.33;;;;;;;;;;5024525;28;20042;-77
2022/10/28 11:52:42;;;;;;;12.52;2.10;;;;;;;;;;5015467;28;20079;-79
2022/10/28 11:55:13;;;;;;;11.00;2.22;;;;;;;;;;5009856;28;20060;-78
2022/10/28 11:58:02;;;;;;;9.68;2.10;;;;;;;;;;5012372;28;20053;-79
2022/10/28 12:00:48;;;;;;;8.50;1.80;;;;;;;;;;5010106;28;20058;-79
2022/10/28 12:03:32;;;;;;;10.45;1.67;;;;;;;;;;5008730;28;20057;-78
2022/10/28 12:06:18;;;;;;;10.50;2.20;;;;;;;;;;5010084;28;20049;-78
2022/10/28 12:09:03;;;;;;;14.13;2.55;;;;;;;;;;5009716;28;20053;-78
2022/10/28 12:11:32;;;;;;;9.95;2.10;;;;;;;;;;5011410;28;20053;-79
2022/10/28 12:14:17;;;;;;;10.35;2.20;;;;;;;;;;5009111;28;20057;-78
2022/10/28 12:16:51;;;;;;;9.77;2.20;;;;;;;;;;5011220;28;20046;-79
2022/10/28 12:19:20;;;;;;;16.08;2.40;;;;;;;;;;5008006;28;20060;-78
2022/10/28 12:22:05;;;;;;;11.73;2.00;;;;;;;;;;5010674;28;20083;-77
2022/10/28 12:24:34;;;;;;;12.15;2.30;;;;;;;;;;5009922;28;20058;-79
2022/10/28 12:27:04;;;;;;;13.77;2.60;;;;;;;;;;4999461;28;20052;-78
2022/10/28 12:29:36;;;;;;;7.13;2.00;;;;;;;;;;5018527;28;20053;-78
2022/10/28 12:32:04;;;;;;;9.35;2.60;;;;;;;;;;5019011;28;20053;-79
2022/10/28 12:34:42;;;;;;;6.40;1.92;;;;;;;;;;5017887;28;20060;-78
2022/10/28 12:37:11;;;;;;;10.02;1.98;;;;;;;;;;5019936;28;20341;-78
2022/10/28 12:39:42;;;;;;;8.35;2.00;;;;;;;;;;5018116;28;20060;-78
2022/10/28 12:42:12;;;;;;;10.68;2.05;;;;;;;;;;5022653;28;20084;-78
2022/10/28 12:44:39;;;;;;;11.02;2.20;;;;;;;;;;5023590;28;20052;-78
2022/10/28 12:47:13;;;;;;;9.10;1.75;;;;;;;;;;5026751;28;20050;-79
2022/10/28 12:49:42;;;;;;;11.68;2.13;;;;;;;;;;5015439;28;20068;-78
2022/10/28 12:52:25;;;;;;;12.77;1.80;;;;;;;;;;5011781;28;20058;-78
2022/10/28 12:54:58;;;;;;;13.40;2.20;;;;;;;;;;4993323;28;20405;-78
2022/10/28 12:57:26;;;;;;;8.00;1.98;;;;;;;;;;4993649;28;20077;-78
2022/10/28 12:59:58;;;;;;;10.40;2.03;;;;;;;;;;5010366;28;20314;-78
2022/10/28 13:02:34;;;;;;;10.60;2.03;;;;;;;;;;5010580;28;20050;-79
2022/10/28 13:05:00;;;;;;;;;;;;;;;;;;5012077;28;20050;-78
2022/10/28 13:07:46;;;;;;;12.52;1.98;;;;;;;;;;5011782;28;19928;-78
2022/10/28 13:10:19;;;;;;;12.52;2.05;;;;;;;;;;4992653;28;20046;-78
2022/10/28 13:13:06;;;;;;;11.32;1.85;;;;;;;;;;5010829;28;20065;-78
2022/10/28 13:15:44;;;;;;;9.95;1.65;;;;;;;;;;5012918;28;20064;-78
2022/10/28 13:18:29;;;;;;;7.10;1.95;;;;;;;;;;5011368;28;20104;-78
2022/10/28 13:20:59;;;;;;;10.25;2.05;;;;;;;;;;5011625;28;20057;-79
2022/10/28 13:23:44;;;;;;;10.88;2.53;;;;;;;;;;5014604;28;20064;-79
2022/10/28 13:26:25;;;;;;;11.07;2.13;;;;;;;;;;5017345;28;20053;-78
2022/10/28 13:28:55;;;;;;;16.80;2.28;;;;;;;;;;5020576;28;20045;-80
2022/10/28 13:31:24;;;;;;;8.98;2.10;;;;;;;;;;5028017;28;20041;-77
2022/10/28 13:33:53;;;;;;;11.98;1.65;;;;;;;;;;5018829;28;20482;-80
2022/10/28 13:36:19;;;;;;;6.75;1.58;;;;;;;;;;5022338;28;20046;-79
2022/10/28 13:38:50;;;;;;;10.43;2.00;;;;;;;;;;5021272;28;20050;-78
2022/10/28 13:41:25;;;;;;;8.60;2.00;;;;;;;;;;5017065;28;20046;-77
2022/10/28 13:43:53;;;;;;;12.93;2.65;;;;;;;;;;5017154;28;20120;-78
2022/10/28 13:46:38;;;;;;;12.48;2.42;;;;;;;;;;4999094;28;20046;-79
2022/10/28 13:49:21;;;;;;;8.80;2.23;;;;;;;;;;5016569;28;20041;-79
2022/10/28 13:51:50;;;;;;;19.38;2.75;;;;;;;;;;5017239;28;20049;-78
2022/10/28 13:54:22;;;;;;;11.85;1.98;;;;;;;;;;5015571;28;20050;-77
2022/10/28 13:56:49;;;;;;;12.25;1.90;;;;;;;;;;5023678;28;20060;-78
2022/10/28 13:59:21;;;;;;;13.27;2.17;;;;;;;;;;5030164;28;20701;-77
2022/10/28 14:01:56;;;;;;;17.40;1.98;;;;;;;;;;5018361;28;20099;-79
2022/10/28 14:04:40;;;;;;;9.80;1.90;;;;;;;;;;5014604;28;20509;-78
2022/10/28 14:07:09;;;;;;;11.15;1.70;;;;;;;;;;5015925;28;20052;-77
2022/10/28 14:09:36;;;;;;;13.20;2.13;;;;;;;;;;5014074;28;20045;-78
2022/10/28 14:12:06;;;;;;;11.80;2.38;;;;;;;;;;5014070;28;20056;-77
2022/10/28 14:14:32;;;;;;;9.93;2.55;;;;;;;;;;5013708;28;20058;-80
2022/10/28 14:16:58;;;;;;;15.13;2.33;;;;;;;;;;5015547;28;20054;-79
2022/10/28 14:19:25;;;;;;;14.57;2.30;;;;;;;;;;5016451;28;20068;-77
2022/10/28 14:22:04;;;;;;;12.02;2.85;;;;;;;;;;5013587;28;20050;-78
2022/10/28 14:24:34;;;;;;;13.35;2.80;;;;;;;;;;5011573;28;20150;-78
2022/10/28 14:27:14;;;;;;;11.40;2.22;;;;;;;;;;5015583;28;20065;-79
2022/10/28 14:29:47;;;;;;;12.70;2.30;;;;;;;;;;5014645;28;20045;-79
2022/10/28 14:32:32;;;;;;;9.13;2.63;;;;;;;;;;5013999;28;20418;-77
2022/10/28 14:35:11;;;;;;;9.82;2.47;;;;;;;;;;4993442;28;20545;-78
2022/10/28 14:37:44;;;;;;;11.10;2.17;;;;;;;;;;5013505;28;20129;-78
2022/10/28 14:40:21;;;;;;;12.40;2.08;;;;;;;;;;5011432;28;20414;-78
2022/10/28 14:42:50;;;;;;;11.80;2.10;;;;;;;;;;5012675;28;20137;-79
2022/10/28 14:45:36;;;;;;;13.32;2.05;;;;;;;;;;5014792;28;20080;-79
2022/10/28 14:48:03;;;;;;;10.30;2.58;;;;;;;;;;5015952;28;20511;-78
2022/10/28 14:50:43;;;;;;;14.52;1.98;;;;;;;;;;5015025;28;20052;-78
2022/10/28 14:53:16;;;;;;;8.40;2.38;;;;;;;;;;5012690;28;20425;-76
2022/10/28 14:55:44;;;;;;;15.73;2.28;;;;;;;;;;5015184;28;20416;-79